CST,Max TemperatureF,Mean TemperatureF,Min TemperatureF,Max Dew PointF,MeanDew PointF,Min DewpointF,Max Humidity, Mean Humidity, Min Humidity, Max Sea Level PressureIn, Mean Sea Level PressureIn, Min Sea Level PressureIn, Max VisibilityMiles, Mean VisibilityMiles, Min VisibilityMiles, Max Wind SpeedMPH, Mean Wind SpeedMPH, Max Gust SpeedMPH,PrecipitationIn, CloudCover, Events, WindDirDegrees
2013-2-1,61,50,37,37,30,20,82,53,28,30.37,30.31,30.27,10,10,6,15,6,16,0.00,3,,340
2013-2-2,66,49,32,45,30,19,72,49,23,30.35,30.25,30.15,10,10,6,13,5,17,0.00,1,,192
2013-2-3,70,58,45,47,37,24,82,55,18,30.22,30.15,30.08,10,9,2,13,4,18,0.00,1,,301
2013-2-4,64,54,44,51,40,32,84,60,35,30.10,30.03,29.96,10,10,8,9,4,,0.00,6,Rain,143
2013-2-5,68,60,53,58,55,50,94,87,70,30.04,29.99,29.93,10,7,0,6,2,,0.11,7,Fog-Rain,72
2013-2-6,71,62,54,57,55,52,100,82,53,30.16,30.07,30.01,10,6,0,9,4,,0.00,6,Fog-Rain,61
2013-2-7,75,66,57,61,57,52,100,82,53,30.00,29.86,29.78,10,6,0,18,8,25,2.32,6,Fog-Rain-Thunderstorm,24
2013-2-8,70,58,46,56,50,45,100,77,53,30.12,30.00,29.91,10,4,0,15,3,18,0.00,3,Fog,330
2013-2-9,70,58,45,47,41,34,80,60,29,30.23,30.16,30.12,10,8,4,9,5,,0.00,1,Rain,68
2013-2-10,73,60,48,68,56,43,93,80,64,30.16,30.07,29.98,9,6,1,28,9,41,0.02,6,Rain-Thunderstorm,143
2013-2-11,75,66,57,70,62,54,94,85,72,30.11,30.05,29.99,10,6,1,13,7,21,0.67,7,Rain-Thunderstorm,271
2013-2-12,73,65,57,70,61,54,94,84,72,30.05,29.88,29.73,10,7,0,18,8,28,0.32,8,Fog-Rain,137
2013-2-13,73,60,46,66,52,40,100,80,60,30.03,29.88,29.75,10,8,3,15,9,24,0.14,6,Rain,295
2013-2-14,57,48,37,40,37,35,93,76,49,30.13,30.06,30.01,10,10,7,10,4,,0.00,2,,352
2013-2-15,64,50,35,42,36,31,89,63,28,30.14,30.06,30.01,10,9,6,9,3,,0.00,1,,306
2013-2-16,53,44,34,37,25,14,71,47,25,30.25,30.12,30.02,10,10,10,21,9,31,0.00,2,Rain,321
2013-2-17,55,42,28,29,20,10,82,51,19,30.36,30.29,30.25,10,10,10,10,3,,0.00,0,,293
2013-2-18,64,48,32,49,39,28,85,64,38,30.29,30.19,30.02,10,10,10,21,8,28,0.00,3,Rain,141
2013-2-19,66,55,43,61,49,25,94,69,26,30.17,30.05,29.97,10,9,3,22,14,30,0.27,6,Rain,252
2013-2-20,59,48,36,34,25,18,73,47,23,30.23,30.15,30.07,10,10,9,8,4,,0.00,4,,34
2013-2-21,66,52,37,62,41,27,87,62,32,30.12,29.99,29.89,10,10,8,18,7,24,0.00,5,,111
2013-2-22,69,66,64,69,65,63,100,93,84,29.97,29.91,29.85,10,4,0,23,8,30,3.27,8,Fog-Rain-Thunderstorm,179
2013-2-23,71,63,55,68,57,52,100,90,82,29.95,29.87,29.76,10,7,1,15,7,22,0.63,8,Rain-Thunderstorm,340
2013-2-24,72,62,51,55,50,44,94,75,37,29.99,29.92,29.82,10,7,1,10,5,,0.31,7,Rain-Thunderstorm,54
2013-2-25,66,62,57,63,58,55,100,89,73,29.86,29.72,29.51,10,6,1,20,10,26,1.73,8,Rain-Thunderstorm,96
2013-2-26,66,57,48,65,50,37,94,72,39,29.89,29.65,29.49,10,8,2,17,13,22,0.38,5,Rain,233
2013-2-27,64,52,41,42,39,35,89,62,35,29.99,29.93,29.88,10,10,8,12,4,,0.00,3,,245
2013-2-28,60,52,44,43,33,27,80,54,31,30.04,29.99,29.94,10,10,10,16,8,23,0.00,4,,319